sensor_id;sensor_type;location;lat;lon;timestamp;temperature;humidity
34776;DHT22;20989;52.566;13.346;2023-04-24T00:00:44;21.60;48.80
34776;DHT22;20989;52.566;13.346;2023-04-24T00:03:45;21.70;48.80
34776;DHT22;20989;52.566;13.346;2023-04-24T00:06:46;21.60;48.80
34776;DHT22;20989;52.566;13.346;2023-04-24T00:09:49;21.60;48.80
34776;DHT22;20989;52.566;13.346;2023-04-24T00:12:50;21.60;48.80
34776;DHT22;20989;52.566;13.346;2023-04-24T00:15:51;21.60;49.30
34776;DHT22;20989;52.566;13.346;2023-04-24T00:18:52;21.60;48.80
34776;DHT22;20989;52.566;13.346;2023-04-24T00:21:53;21.60;48.80
34776;DHT22;20989;52.566;13.346;2023-04-24T00:24:54;21.60;48.80
34776;DHT22;20989;52.566;13.346;2023-04-24T00:27:55;21.60;48.90
34776;DHT22;20989;52.566;13.346;2023-04-24T00:30:56;21.60;48.80
34776;DHT22;20989;52.566;13.346;2023-04-24T00:33:57;21.60;48.80
34776;DHT22;20989;52.566;13.346;2023-04-24T00:36:58;21.60;48.80
34776;DHT22;20989;52.566;13.346;2023-04-24T00:39:59;21.60;48.80
34776;DHT22;20989;52.566;13.346;2023-04-24T00:42:59;21.60;48.90
34776;DHT22;20989;52.566;13.346;2023-04-24T00:46:00;21.60;48.80
34776;DHT22;20989;52.566;13.346;2023-04-24T00:49:04;21.60;48.90
34776;DHT22;20989;52.566;13.346;2023-04-24T00:52:06;21.60;48.80
34776;DHT22;20989;52.566;13.346;2023-04-24T00:55:09;21.60;48.80
34776;DHT22;20989;52.566;13.346;2023-04-24T00:58:10;21.60;48.80
34776;DHT22;20989;52.566;13.346;2023-04-24T01:01:11;21.60;48.80
34776;DHT22;20989;52.566;13.346;2023-04-24T01:04:12;21.60;48.80
34776;DHT22;20989;52.566;13.346;2023-04-24T01:07:13;21.60;48.90
34776;DHT22;20989;52.566;13.346;2023-04-24T01:10:15;21.60;48.80
34776;DHT22;20989;52.566;13.346;2023-04-24T01:13:15;21.60;48.90
34776;DHT22;20989;52.566;13.346;2023-04-24T01:16:17;21.60;48.90
34776;DHT22;20989;52.566;13.346;2023-04-24T01:19:21;21.60;48.90
34776;DHT22;20989;52.566;13.346;2023-04-24T01:22:21;21.50;48.80
34776;DHT22;20989;52.566;13.346;2023-04-24T01:25:23;21.60;48.90
34776;DHT22;20989;52.566;13.346;2023-04-24T01:28:23;21.50;48.80
34776;DHT22;20989;52.566;13.346;2023-04-24T01:31:24;21.50;48.90
34776;DHT22;20989;52.566;13.346;2023-04-24T01:34:26;21.50;48.80
34776;DHT22;20989;52.566;13.346;2023-04-24T01:37:26;21.50;48.80
34776;DHT22;20989;52.566;13.346;2023-04-24T01:40:27;21.50;48.90
34776;DHT22;20989;52.566;13.346;2023-04-24T01:43:29;21.50;48.80
34776;DHT22;20989;52.566;13.346;2023-04-24T01:46:29;21.50;48.80
34776;DHT22;20989;52.566;13.346;2023-04-24T01:49:31;21.50;48.80
34776;DHT22;20989;52.566;13.346;2023-04-24T01:52:33;21.60;48.90
34776;DHT22;20989;52.566;13.346;2023-04-24T01:55:35;21.50;48.80
34776;DHT22;20989;52.566;13.346;2023-04-24T01:58:36;21.50;48.90
34776;DHT22;20989;52.566;13.346;2023-04-24T02:01:37;21.50;48.80
34776;DHT22;20989;52.566;13.346;2023-04-24T02:04:39;21.50;48.80
34776;DHT22;20989;52.566;13.346;2023-04-24T02:07:40;21.50;48.90
34776;DHT22;20989;52.566;13.346;2023-04-24T02:10:40;21.50;48.80
34776;DHT22;20989;52.566;13.346;2023-04-24T02:13:41;21.50;48.90
34776;DHT22;20989;52.566;13.346;2023-04-24T02:16:41;21.50;48.90
34776;DHT22;20989;52.566;13.346;2023-04-24T02:19:42;21.50;48.90
34776;DHT22;20989;52.566;13.346;2023-04-24T02:22:43;21.50;48.80
34776;DHT22;20989;52.566;13.346;2023-04-24T02:25:44;21.50;48.80
34776;DHT22;20989;52.566;13.346;2023-04-24T02:28:44;21.50;48.90
34776;DHT22;20989;52.566;13.346;2023-04-24T02:31:45;21.50;48.90
34776;DHT22;20989;52.566;13.346;2023-04-24T02:34:46;21.50;48.90
34776;DHT22;20989;52.566;13.346;2023-04-24T02:37:46;21.50;48.90
34776;DHT22;20989;52.566;13.346;2023-04-24T02:40:47;21.50;48.90
34776;DHT22;20989;52.566;13.346;2023-04-24T02:43:48;21.50;48.90
34776;DHT22;20989;52.566;13.346;2023-04-24T02:46:49;21.50;48.90
34776;DHT22;20989;52.566;13.346;2023-04-24T02:49:49;21.50;48.90
34776;DHT22;20989;52.566;13.346;2023-04-24T02:52:50;21.50;48.90
34776;DHT22;20989;52.566;13.346;2023-04-24T02:55:51;21.50;48.90
34776;DHT22;20989;52.566;13.346;2023-04-24T02:58:51;21.50;48.90
34776;DHT22;20989;52.566;13.346;2023-04-24T03:01:52;21.50;48.90
34776;DHT22;20989;52.566;13.346;2023-04-24T03:04:53;21.50;48.90
34776;DHT22;20989;52.566;13.346;2023-04-24T03:07:54;21.40;48.80
34776;DHT22;20989;52.566;13.346;2023-04-24T03:10:54;21.50;48.90
34776;DHT22;20989;52.566;13.346;2023-04-24T03:13:55;21.50;48.90
34776;DHT22;20989;52.566;13.346;2023-04-24T03:16:55;21.40;48.80
34776;DHT22;20989;52.566;13.346;2023-04-24T03:19:57;21.50;48.90
34776;DHT22;20989;52.566;13.346;2023-04-24T03:22:57;21.40;48.80
34776;DHT22;20989;52.566;13.346;2023-04-24T03:25:58;21.50;48.90
34776;DHT22;20989;52.566;13.346;2023-04-24T03:28:58;21.40;49.40
34776;DHT22;20989;52.566;13.346;2023-04-24T03:31:59;21.40;48.90
34776;DHT22;20989;52.566;13.346;2023-04-24T03:35:00;21.50;48.90
34776;DHT22;20989;52.566;13.346;2023-04-24T03:38:00;21.40;48.80
34776;DHT22;20989;52.566;13.346;2023-04-24T03:41:01;21.40;48.90
34776;DHT22;20989;52.566;13.346;2023-04-24T03:44:02;21.40;48.90
34776;DHT22;20989;52.566;13.346;2023-04-24T03:47:03;21.40;48.90
34776;DHT22;20989;52.566;13.346;2023-04-24T03:50:04;21.40;48.90
34776;DHT22;20989;52.566;13.346;2023-04-24T03:53:05;21.40;48.90
34776;DHT22;20989;52.566;13.346;2023-04-24T03:56:06;21.50;48.90
34776;DHT22;20989;52.566;13.346;2023-04-24T04:03:04;21.40;48.90
34776;DHT22;20989;52.566;13.346;2023-04-24T04:06:05;21.40;48.90
34776;DHT22;20989;52.566;13.346;2023-04-24T04:09:05;21.40;48.90
34776;DHT22;20989;52.566;13.346;2023-04-24T04:12:07;21.40;48.90
34776;DHT22;20989;52.566;13.346;2023-04-24T04:15:08;21.40;48.90
34776;DHT22;20989;52.566;13.346;2023-04-24T04:18:09;21.40;48.90
34776;DHT22;20989;52.566;13.346;2023-04-24T04:21:10;21.40;48.90
34776;DHT22;20989;52.566;13.346;2023-04-24T04:24:11;21.40;48.90
34776;DHT22;20989;52.566;13.346;2023-04-24T04:27:11;21.40;48.90
34776;DHT22;20989;52.566;13.346;2023-04-24T04:30:13;21.40;48.90
34776;DHT22;20989;52.566;13.346;2023-04-24T04:33:13;21.40;48.90
34776;DHT22;20989;52.566;13.346;2023-04-24T04:36:14;21.40;48.90
34776;DHT22;20989;52.566;13.346;2023-04-24T04:39:18;21.40;48.90
34776;DHT22;20989;52.566;13.346;2023-04-24T04:42:20;21.40;48.90
34776;DHT22;20989;52.566;13.346;2023-04-24T04:45:20;21.40;48.90
34776;DHT22;20989;52.566;13.346;2023-04-24T04:48:21;21.40;49.00
34776;DHT22;20989;52.566;13.346;2023-04-24T04:51:22;21.50;48.90
34776;DHT22;20989;52.566;13.346;2023-04-24T04:54:23;21.60;48.70
34776;DHT22;20989;52.566;13.346;2023-04-24T04:57:24;21.50;48.60
34776;DHT22;20989;52.566;13.346;2023-04-24T05:00:25;21.60;49.10
34776;DHT22;20989;52.566;13.346;2023-04-24T05:03:25;21.60;48.50
34776;DHT22;20989;52.566;13.346;2023-04-24T05:06:26;21.70;48.50
34776;DHT22;20989;52.566;13.346;2023-04-24T05:09:28;21.70;48.60
34776;DHT22;20989;52.566;13.346;2023-04-24T05:12:29;21.70;48.70
34776;DHT22;20989;52.566;13.346;2023-04-24T05:15:30;21.70;48.70
34776;DHT22;20989;52.566;13.346;2023-04-24T05:18:31;21.70;48.80
34776;DHT22;20989;52.566;13.346;2023-04-24T05:21:31;21.70;48.80
34776;DHT22;20989;52.566;13.346;2023-04-24T05:24:33;21.70;48.70
34776;DHT22;20989;52.566;13.346;2023-04-24T05:27:35;21.70;48.80
34776;DHT22;20989;52.566;13.346;2023-04-24T05:30:36;21.70;48.80
34776;DHT22;20989;52.566;13.346;2023-04-24T05:33:36;21.70;49.00
34776;DHT22;20989;52.566;13.346;2023-04-24T05:36:37;21.80;49.00
34776;DHT22;20989;52.566;13.346;2023-04-24T05:39:38;21.90;48.90
34776;DHT22;20989;52.566;13.346;2023-04-24T05:42:39;21.80;48.90
34776;DHT22;20989;52.566;13.346;2023-04-24T05:45:40;21.80;49.10
34776;DHT22;20989;52.566;13.346;2023-04-24T05:48:41;21.90;49.10
34776;DHT22;20989;52.566;13.346;2023-04-24T05:51:41;21.90;49.60
34776;DHT22;20989;52.566;13.346;2023-04-24T05:54:42;21.90;49.10
34776;DHT22;20989;52.566;13.346;2023-04-24T05:57:43;21.90;49.10
34776;DHT22;20989;52.566;13.346;2023-04-24T06:00:44;21.90;49.10
34776;DHT22;20989;52.566;13.346;2023-04-24T06:03:46;21.90;49.10
34776;DHT22;20989;52.566;13.346;2023-04-24T06:06:47;21.90;49.20
34776;DHT22;20989;52.566;13.346;2023-04-24T06:09:51;21.90;49.20
34776;DHT22;20989;52.566;13.346;2023-04-24T06:12:51;21.90;49.10
34776;DHT22;20989;52.566;13.346;2023-04-24T06:15:52;21.90;49.00
34776;DHT22;20989;52.566;13.346;2023-04-24T06:18:53;21.80;49.00
34776;DHT22;20989;52.566;13.346;2023-04-24T06:21:54;21.80;49.10
34776;DHT22;20989;52.566;13.346;2023-04-24T06:24:54;21.80;49.10
34776;DHT22;20989;52.566;13.346;2023-04-24T06:27:55;21.80;49.20
34776;DHT22;20989;52.566;13.346;2023-04-24T06:30:56;21.70;49.10
34776;DHT22;20989;52.566;13.346;2023-04-24T06:33:57;21.70;49.20
34776;DHT22;20989;52.566;13.346;2023-04-24T06:36:58;21.70;49.20
34776;DHT22;20989;52.566;13.346;2023-04-24T06:39:59;21.70;49.30
34776;DHT22;20989;52.566;13.346;2023-04-24T06:42:59;21.60;49.20
34776;DHT22;20989;52.566;13.346;2023-04-24T06:46:03;21.60;49.20
34776;DHT22;20989;52.566;13.346;2023-04-24T06:49:03;21.60;49.20
34776;DHT22;20989;52.566;13.346;2023-04-24T06:52:04;21.60;49.20
34776;DHT22;20989;52.566;13.346;2023-04-24T06:55:06;21.60;49.20
34776;DHT22;20989;52.566;13.346;2023-04-24T06:58:06;21.60;49.20
34776;DHT22;20989;52.566;13.346;2023-04-24T07:01:07;21.50;49.20
34776;DHT22;20989;52.566;13.346;2023-04-24T07:04:08;21.60;49.20
34776;DHT22;20989;52.566;13.346;2023-04-24T07:07:08;21.50;49.20
34776;DHT22;20989;52.566;13.346;2023-04-24T07:10:13;21.50;49.20
34776;DHT22;20989;52.566;13.346;2023-04-24T07:13:14;21.50;49.20
34776;DHT22;20989;52.566;13.346;2023-04-24T07:16:15;21.60;49.20
34776;DHT22;20989;52.566;13.346;2023-04-24T07:19:16;21.50;49.20
34776;DHT22;20989;52.566;13.346;2023-04-24T07:22:17;21.50;49.10
34776;DHT22;20989;52.566;13.346;2023-04-24T07:25:18;21.50;49.20
34776;DHT22;20989;52.566;13.346;2023-04-24T07:28:18;21.50;49.10
34776;DHT22;20989;52.566;13.346;2023-04-24T07:31:19;21.50;49.10
34776;DHT22;20989;52.566;13.346;2023-04-24T07:34:20;21.50;49.10
34776;DHT22;20989;52.566;13.346;2023-04-24T07:37:21;21.50;49.20
34776;DHT22;20989;52.566;13.346;2023-04-24T07:40:22;21.50;49.10
34776;DHT22;20989;52.566;13.346;2023-04-24T07:43:23;21.50;49.10
34776;DHT22;20989;52.566;13.346;2023-04-24T07:46:24;21.50;49.10
34776;DHT22;20989;52.566;13.346;2023-04-24T07:49:25;21.50;49.10
34776;DHT22;20989;52.566;13.346;2023-04-24T07:52:26;21.50;49.10
34776;DHT22;20989;52.566;13.346;2023-04-24T07:55:26;21.50;49.10
34776;DHT22;20989;52.566;13.346;2023-04-24T07:58:27;21.50;49.00
34776;DHT22;20989;52.566;13.346;2023-04-24T08:01:28;21.50;49.00
34776;DHT22;20989;52.566;13.346;2023-04-24T08:04:28;21.50;49.00
34776;DHT22;20989;52.566;13.346;2023-04-24T08:07:29;21.50;49.00
34776;DHT22;20989;52.566;13.346;2023-04-24T08:10:30;21.50;49.00
34776;DHT22;20989;52.566;13.346;2023-04-24T08:13:31;21.50;49.00
34776;DHT22;20989;52.566;13.346;2023-04-24T08:16:33;21.50;49.00
34776;DHT22;20989;52.566;13.346;2023-04-24T08:19:33;21.50;48.90
34776;DHT22;20989;52.566;13.346;2023-04-24T08:22:34;21.50;48.80
34776;DHT22;20989;52.566;13.346;2023-04-24T08:25:35;21.50;48.80
34776;DHT22;20989;52.566;13.346;2023-04-24T08:28:36;21.50;48.90
34776;DHT22;20989;52.566;13.346;2023-04-24T08:31:37;21.50;48.90
34776;DHT22;20989;52.566;13.346;2023-04-24T08:34:37;21.60;49.40
34776;DHT22;20989;52.566;13.346;2023-04-24T08:37:38;21.70;48.60
34776;DHT22;20989;52.566;13.346;2023-04-24T08:40:39;21.80;48.70
34776;DHT22;20989;52.566;13.346;2023-04-24T08:43:40;21.80;48.90
34776;DHT22;20989;52.566;13.346;2023-04-24T08:46:43;21.80;48.90
34776;DHT22;20989;52.566;13.346;2023-04-24T08:49:48;21.80;49.10
34776;DHT22;20989;52.566;13.346;2023-04-24T08:52:52;21.80;49.50
34776;DHT22;20989;52.566;13.346;2023-04-24T08:55:55;21.90;49.30
34776;DHT22;20989;52.566;13.346;2023-04-24T08:58:56;21.90;49.30
34776;DHT22;20989;52.566;13.346;2023-04-24T09:01:57;21.80;49.40
34776;DHT22;20989;52.566;13.346;2023-04-24T09:04:59;21.70;49.40
34776;DHT22;20989;52.566;13.346;2023-04-24T09:08:01;21.70;49.50
34776;DHT22;20989;52.566;13.346;2023-04-24T09:11:02;21.70;49.40
34776;DHT22;20989;52.566;13.346;2023-04-24T09:14:04;21.70;49.40
34776;DHT22;20989;52.566;13.346;2023-04-24T09:17:06;21.60;49.40
34776;DHT22;20989;52.566;13.346;2023-04-24T09:20:07;21.60;49.30
34776;DHT22;20989;52.566;13.346;2023-04-24T09:23:08;21.60;49.30
34776;DHT22;20989;52.566;13.346;2023-04-24T09:26:13;21.60;49.20
34776;DHT22;20989;52.566;13.346;2023-04-24T09:29:16;21.60;49.20
34776;DHT22;20989;52.566;13.346;2023-04-24T09:32:21;21.60;49.30
34776;DHT22;20989;52.566;13.346;2023-04-24T09:35:23;21.60;49.30
34776;DHT22;20989;52.566;13.346;2023-04-24T09:38:37;21.60;49.30
34776;DHT22;20989;52.566;13.346;2023-04-24T09:41:50;21.60;49.30
34776;DHT22;20989;52.566;13.346;2023-04-24T09:44:51;21.60;49.40
34776;DHT22;20989;52.566;13.346;2023-04-24T09:47:53;21.60;49.40
34776;DHT22;20989;52.566;13.346;2023-04-24T09:50:54;21.60;49.40
34776;DHT22;20989;52.566;13.346;2023-04-24T09:53:55;21.60;49.40
34776;DHT22;20989;52.566;13.346;2023-04-24T09:56:55;21.60;49.40
34776;DHT22;20989;52.566;13.346;2023-04-24T09:59:57;21.50;49.30
34776;DHT22;20989;52.566;13.346;2023-04-24T10:03:05;21.50;49.30
34776;DHT22;20989;52.566;13.346;2023-04-24T10:06:12;21.60;49.30
34776;DHT22;20989;52.566;13.346;2023-04-24T10:09:13;21.50;49.20
34776;DHT22;20989;52.566;13.346;2023-04-24T10:12:14;21.50;49.20
34776;DHT22;20989;52.566;13.346;2023-04-24T10:15:16;21.50;49.20
34776;DHT22;20989;52.566;13.346;2023-04-24T10:18:21;21.50;49.20
34776;DHT22;20989;52.566;13.346;2023-04-24T10:21:22;21.50;49.20
34776;DHT22;20989;52.566;13.346;2023-04-24T10:24:23;21.50;49.20
34776;DHT22;20989;52.566;13.346;2023-04-24T10:27:25;21.50;49.20
34776;DHT22;20989;52.566;13.346;2023-04-24T10:30:32;21.50;49.20
34776;DHT22;20989;52.566;13.346;2023-04-24T10:33:35;21.50;49.20
34776;DHT22;20989;52.566;13.346;2023-04-24T10:40:08;21.50;49.20
34776;DHT22;20989;52.566;13.346;2023-04-24T10:43:10;21.60;49.20
34776;DHT22;20989;52.566;13.346;2023-04-24T10:46:19;21.50;49.10
34776;DHT22;20989;52.566;13.346;2023-04-24T10:49:28;21.50;49.20
34776;DHT22;20989;52.566;13.346;2023-04-24T10:52:46;21.50;49.20
34776;DHT22;20989;52.566;13.346;2023-04-24T10:55:51;21.50;49.20
34776;DHT22;20989;52.566;13.346;2023-04-24T10:58:53;21.50;49.10
34776;DHT22;20989;52.566;13.346;2023-04-24T11:01:55;21.50;49.20
34776;DHT22;20989;52.566;13.346;2023-04-24T11:04:55;21.50;49.20
34776;DHT22;20989;52.566;13.346;2023-04-24T11:08:21;21.50;49.20
34776;DHT22;20989;52.566;13.346;2023-04-24T11:11:28;21.50;49.20
34776;DHT22;20989;52.566;13.346;2023-04-24T11:14:29;21.60;48.90
34776;DHT22;20989;52.566;13.346;2023-04-24T11:17:36;21.70;48.80
34776;DHT22;20989;52.566;13.346;2023-04-24T11:20:44;21.70;48.90
34776;DHT22;20989;52.566;13.346;2023-04-24T11:23:45;21.80;48.80
34776;DHT22;20989;52.566;13.346;2023-04-24T11:26:47;21.80;48.80
34776;DHT22;20989;52.566;13.346;2023-04-24T11:33:02;21.90;48.70
34776;DHT22;20989;52.566;13.346;2023-04-24T11:36:03;21.90;48.70
34776;DHT22;20989;52.566;13.346;2023-04-24T11:39:04;21.90;48.80
34776;DHT22;20989;52.566;13.346;2023-04-24T11:42:07;21.90;48.80
34776;DHT22;20989;52.566;13.346;2023-04-24T11:45:18;21.90;48.80
34776;DHT22;20989;52.566;13.346;2023-04-24T11:48:20;21.90;48.90
34776;DHT22;20989;52.566;13.346;2023-04-24T11:51:22;21.90;49.00
34776;DHT22;20989;52.566;13.346;2023-04-24T11:54:24;21.90;48.70
34776;DHT22;20989;52.566;13.346;2023-04-24T11:57:25;21.90;48.80
34776;DHT22;20989;52.566;13.346;2023-04-24T12:00:33;21.90;48.90
34776;DHT22;20989;52.566;13.346;2023-04-24T12:03:34;22.00;48.90
34776;DHT22;20989;52.566;13.346;2023-04-24T12:06:35;22.00;48.90
34776;DHT22;20989;52.566;13.346;2023-04-24T12:09:48;22.00;49.10
34776;DHT22;20989;52.566;13.346;2023-04-24T12:12:49;22.00;49.30
34776;DHT22;20989;52.566;13.346;2023-04-24T12:15:51;22.00;49.30
34776;DHT22;20989;52.566;13.346;2023-04-24T12:18:52;22.00;49.40
34776;DHT22;20989;52.566;13.346;2023-04-24T12:22:00;22.00;49.40
34776;DHT22;20989;52.566;13.346;2023-04-24T12:25:03;22.00;49.50
34776;DHT22;20989;52.566;13.346;2023-04-24T12:31:06;22.10;49.50
34776;DHT22;20989;52.566;13.346;2023-04-24T12:34:21;22.10;49.40
34776;DHT22;20989;52.566;13.346;2023-04-24T12:37:26;22.20;49.30
34776;DHT22;20989;52.566;13.346;2023-04-24T12:40:32;22.20;49.30
34776;DHT22;20989;52.566;13.346;2023-04-24T12:43:34;22.20;49.40
34776;DHT22;20989;52.566;13.346;2023-04-24T12:46:35;22.10;49.40
34776;DHT22;20989;52.566;13.346;2023-04-24T12:49:35;22.20;49.60
34776;DHT22;20989;52.566;13.346;2023-04-24T12:52:37;22.20;49.60
34776;DHT22;20989;52.566;13.346;2023-04-24T12:55:38;22.20;49.40
34776;DHT22;20989;52.566;13.346;2023-04-24T12:58:38;22.20;49.50
34776;DHT22;20989;52.566;13.346;2023-04-24T13:01:40;22.20;49.30
34776;DHT22;20989;52.566;13.346;2023-04-24T13:04:40;22.20;49.50
34776;DHT22;20989;52.566;13.346;2023-04-24T13:07:41;22.20;49.30
34776;DHT22;20989;52.566;13.346;2023-04-24T13:10:42;22.30;49.30
34776;DHT22;20989;52.566;13.346;2023-04-24T13:13:43;22.30;49.40
34776;DHT22;20989;52.566;13.346;2023-04-24T13:16:43;22.30;49.10
34776;DHT22;20989;52.566;13.346;2023-04-24T13:19:45;22.30;49.00
34776;DHT22;20989;52.566;13.346;2023-04-24T13:22:45;22.40;49.00
34776;DHT22;20989;52.566;13.346;2023-04-24T13:25:46;22.40;48.90
34776;DHT22;20989;52.566;13.346;2023-04-24T13:28:48;22.40;48.90
34776;DHT22;20989;52.566;13.346;2023-04-24T13:31:53;22.40;49.00
34776;DHT22;20989;52.566;13.346;2023-04-24T13:34:56;22.40;48.70
34776;DHT22;20989;52.566;13.346;2023-04-24T13:37:57;22.50;48.90
34776;DHT22;20989;52.566;13.346;2023-04-24T13:40:58;22.50;48.90
34776;DHT22;20989;52.566;13.346;2023-04-24T13:43:59;22.50;48.80
34776;DHT22;20989;52.566;13.346;2023-04-24T13:47:00;22.40;49.00
34776;DHT22;20989;52.566;13.346;2023-04-24T13:50:00;22.50;48.90
34776;DHT22;20989;52.566;13.346;2023-04-24T13:53:02;22.40;48.80
34776;DHT22;20989;52.566;13.346;2023-04-24T13:56:02;22.40;49.00
34776;DHT22;20989;52.566;13.346;2023-04-24T13:59:03;22.40;49.20
34776;DHT22;20989;52.566;13.346;2023-04-24T14:02:04;22.50;48.90
34776;DHT22;20989;52.566;13.346;2023-04-24T14:05:05;22.50;48.80
34776;DHT22;20989;52.566;13.346;2023-04-24T14:08:06;22.50;49.00
34776;DHT22;20989;52.566;13.346;2023-04-24T14:11:07;22.50;49.00
34776;DHT22;20989;52.566;13.346;2023-04-24T14:14:08;22.50;49.20
34776;DHT22;20989;52.566;13.346;2023-04-24T14:17:08;22.50;48.90
34776;DHT22;20989;52.566;13.346;2023-04-24T14:20:10;22.50;48.90
34776;DHT22;20989;52.566;13.346;2023-04-24T14:23:10;22.50;48.80
34776;DHT22;20989;52.566;13.346;2023-04-24T14:26:11;22.50;49.10
34776;DHT22;20989;52.566;13.346;2023-04-24T14:29:12;22.50;48.80
34776;DHT22;20989;52.566;13.346;2023-04-24T14:32:13;22.50;48.70
34776;DHT22;20989;52.566;13.346;2023-04-24T14:35:15;22.50;48.40
34776;DHT22;20989;52.566;13.346;2023-04-24T14:38:16;22.60;48.70
34776;DHT22;20989;52.566;13.346;2023-04-24T14:41:16;22.60;48.50
34776;DHT22;20989;52.566;13.346;2023-04-24T14:44:17;22.60;48.50
34776;DHT22;20989;52.566;13.346;2023-04-24T14:47:18;22.70;48.70
34776;DHT22;20989;52.566;13.346;2023-04-24T14:50:21;22.70;48.50
34776;DHT22;20989;52.566;13.346;2023-04-24T14:53:36;22.50;47.60
34776;DHT22;20989;52.566;13.346;2023-04-24T14:56:38;22.50;48.60
34776;DHT22;20989;52.566;13.346;2023-04-24T14:59:41;22.60;48.10
34776;DHT22;20989;52.566;13.346;2023-04-24T15:02:56;22.60;48.20
34776;DHT22;20989;52.566;13.346;2023-04-24T15:06:13;22.60;48.10
34776;DHT22;20989;52.566;13.346;2023-04-24T15:09:50;22.50;48.00
34776;DHT22;20989;52.566;13.346;2023-04-24T15:12:55;22.60;48.00
34776;DHT22;20989;52.566;13.346;2023-04-24T15:15:56;22.60;48.10
34776;DHT22;20989;52.566;13.346;2023-04-24T15:18:57;22.60;47.70
34776;DHT22;20989;52.566;13.346;2023-04-24T15:21:58;22.60;47.80
34776;DHT22;20989;52.566;13.346;2023-04-24T15:24:58;22.60;47.60
34776;DHT22;20989;52.566;13.346;2023-04-24T15:27:59;22.70;47.90
34776;DHT22;20989;52.566;13.346;2023-04-24T15:31:02;22.70;47.60
34776;DHT22;20989;52.566;13.346;2023-04-24T15:34:03;22.70;47.40
34776;DHT22;20989;52.566;13.346;2023-04-24T15:37:04;22.70;47.30
34776;DHT22;20989;52.566;13.346;2023-04-24T15:40:05;22.80;47.40
34776;DHT22;20989;52.566;13.346;2023-04-24T15:43:07;22.80;47.30
34776;DHT22;20989;52.566;13.346;2023-04-24T15:46:08;22.80;47.30
34776;DHT22;20989;52.566;13.346;2023-04-24T15:49:10;22.80;47.20
34776;DHT22;20989;52.566;13.346;2023-04-24T15:52:10;22.80;47.20
34776;DHT22;20989;52.566;13.346;2023-04-24T15:55:12;22.80;47.10
34776;DHT22;20989;52.566;13.346;2023-04-24T15:58:13;22.80;47.10
34776;DHT22;20989;52.566;13.346;2023-04-24T16:01:14;22.80;47.10
34776;DHT22;20989;52.566;13.346;2023-04-24T16:04:15;22.80;47.00
34776;DHT22;20989;52.566;13.346;2023-04-24T16:07:16;22.80;47.30
34776;DHT22;20989;52.566;13.346;2023-04-24T16:10:20;22.80;47.00
34776;DHT22;20989;52.566;13.346;2023-04-24T16:13:20;22.80;47.10
34776;DHT22;20989;52.566;13.346;2023-04-24T16:16:21;22.80;47.20
34776;DHT22;20989;52.566;13.346;2023-04-24T16:19:24;22.90;47.10
34776;DHT22;20989;52.566;13.346;2023-04-24T16:22:25;22.80;47.20
34776;DHT22;20989;52.566;13.346;2023-04-24T16:25:27;22.90;47.20
34776;DHT22;20989;52.566;13.346;2023-04-24T16:28:29;22.90;47.30
34776;DHT22;20989;52.566;13.346;2023-04-24T16:31:30;22.90;47.10
34776;DHT22;20989;52.566;13.346;2023-04-24T16:34:30;22.80;47.10
34776;DHT22;20989;52.566;13.346;2023-04-24T16:37:31;22.80;47.30
34776;DHT22;20989;52.566;13.346;2023-04-24T16:40:32;22.70;47.30
34776;DHT22;20989;52.566;13.346;2023-04-24T16:43:33;22.70;47.30
34776;DHT22;20989;52.566;13.346;2023-04-24T16:46:34;22.70;47.20
34776;DHT22;20989;52.566;13.346;2023-04-24T16:49:35;22.70;47.20
34776;DHT22;20989;52.566;13.346;2023-04-24T16:52:35;22.70;47.30
34776;DHT22;20989;52.566;13.346;2023-04-24T16:55:37;22.60;47.40
34776;DHT22;20989;52.566;13.346;2023-04-24T16:58:38;22.60;47.60
34776;DHT22;20989;52.566;13.346;2023-04-24T17:01:39;22.60;47.70
34776;DHT22;20989;52.566;13.346;2023-04-24T17:04:40;22.60;47.50
34776;DHT22;20989;52.566;13.346;2023-04-24T17:07:41;22.60;47.60
34776;DHT22;20989;52.566;13.346;2023-04-24T17:10:41;22.60;47.40
34776;DHT22;20989;52.566;13.346;2023-04-24T17:13:42;22.60;47.50
34776;DHT22;20989;52.566;13.346;2023-04-24T17:16:43;22.70;47.40
34776;DHT22;20989;52.566;13.346;2023-04-24T17:19:45;22.80;47.20
34776;DHT22;20989;52.566;13.346;2023-04-24T17:22:46;22.80;47.30
34776;DHT22;20989;52.566;13.346;2023-04-24T17:25:48;22.70;47.30
34776;DHT22;20989;52.566;13.346;2023-04-24T17:28:48;22.70;47.30
34776;DHT22;20989;52.566;13.346;2023-04-24T17:31:49;22.80;47.40
34776;DHT22;20989;52.566;13.346;2023-04-24T17:34:51;22.80;47.50
34776;DHT22;20989;52.566;13.346;2023-04-24T17:37:52;22.70;47.40
34776;DHT22;20989;52.566;13.346;2023-04-24T17:40:52;22.80;47.50
34776;DHT22;20989;52.566;13.346;2023-04-24T17:43:53;22.80;47.50
34776;DHT22;20989;52.566;13.346;2023-04-24T17:46:54;22.80;47.60
34776;DHT22;20989;52.566;13.346;2023-04-24T17:49:55;22.70;47.60
34776;DHT22;20989;52.566;13.346;2023-04-24T17:52:56;22.70;47.50
34776;DHT22;20989;52.566;13.346;2023-04-24T17:55:57;22.60;47.60
34776;DHT22;20989;52.566;13.346;2023-04-24T17:59:01;22.50;47.10
34776;DHT22;20989;52.566;13.346;2023-04-24T18:02:02;22.50;47.60
34776;DHT22;20989;52.566;13.346;2023-04-24T18:05:03;22.60;47.40
34776;DHT22;20989;52.566;13.346;2023-04-24T18:08:04;22.70;47.40
34776;DHT22;20989;52.566;13.346;2023-04-24T18:11:05;22.70;47.20
34776;DHT22;20989;52.566;13.346;2023-04-24T18:14:06;22.70;47.40
34776;DHT22;20989;52.566;13.346;2023-04-24T18:17:07;22.70;47.50
34776;DHT22;20989;52.566;13.346;2023-04-24T18:20:09;22.70;47.20
34776;DHT22;20989;52.566;13.346;2023-04-24T18:23:11;22.70;47.20
34776;DHT22;20989;52.566;13.346;2023-04-24T18:26:12;22.70;47.10
34776;DHT22;20989;52.566;13.346;2023-04-24T18:29:16;22.60;47.30
34776;DHT22;20989;52.566;13.346;2023-04-24T18:32:17;22.50;47.30
34776;DHT22;20989;52.566;13.346;2023-04-24T18:35:18;22.50;47.50
34776;DHT22;20989;52.566;13.346;2023-04-24T18:38:19;22.50;47.20
34776;DHT22;20989;52.566;13.346;2023-04-24T18:41:21;22.40;47.10
34776;DHT22;20989;52.566;13.346;2023-04-24T18:44:22;22.40;47.20
34776;DHT22;20989;52.566;13.346;2023-04-24T18:47:23;22.40;47.10
34776;DHT22;20989;52.566;13.346;2023-04-24T18:50:24;22.40;47.20
34776;DHT22;20989;52.566;13.346;2023-04-24T18:53:27;22.30;47.10
34776;DHT22;20989;52.566;13.346;2023-04-24T18:56:28;22.30;47.00
34776;DHT22;20989;52.566;13.346;2023-04-24T18:59:28;22.30;47.20
34776;DHT22;20989;52.566;13.346;2023-04-24T19:02:29;22.30;47.10